createdAt,value
2022-09-12T00:02:17.618Z,13.88
2022-09-12T00:05:20.311Z,14.55
2022-09-12T00:08:23.095Z,16.17
2022-09-12T00:11:26.546Z,13.40
2022-09-12T00:14:29.039Z,14.25
2022-09-12T00:17:34.591Z,15.05
2022-09-12T00:20:42.285Z,15.55
2022-09-12T00:23:45.964Z,16.60
2022-09-12T00:26:48.869Z,17.80
2022-09-12T00:29:51.425Z,16.40
2022-09-12T00:32:54.893Z,15.38
2022-09-12T00:35:57.322Z,19.05
2022-09-12T00:38:59.815Z,16.55
2022-09-12T00:42:02.248Z,15.33
2022-09-12T00:45:05.261Z,16.87
2022-09-12T00:48:16.395Z,18.98
2022-09-12T00:51:19.394Z,20.05
2022-09-12T00:54:25.009Z,18.30
2022-09-12T00:57:31.519Z,16.77
2022-09-12T01:00:34.046Z,18.67
2022-09-12T01:03:36.597Z,18.35
2022-09-12T01:06:43.373Z,19.25
2022-09-12T01:09:46.293Z,20.80
2022-09-12T01:12:49.167Z,19.70
2022-09-12T01:15:52.806Z,18.50
2022-09-12T01:19:04.269Z,16.00
2022-09-12T01:22:22.014Z,17.85
2022-09-12T01:25:57.037Z,18.52
2022-09-12T01:29:23.465Z,17.40
2022-09-12T01:32:35.120Z,18.55
2022-09-12T01:35:55.069Z,20.55
2022-09-12T01:39:01.583Z,17.48
2022-09-12T01:42:10.387Z,20.00
2022-09-12T01:45:28.586Z,17.53
2022-09-12T01:48:57.441Z,19.65
2022-09-12T01:52:21.727Z,18.85
2022-09-12T01:55:28.502Z,20.42
2022-09-12T01:58:39.178Z,18.98
2022-09-12T02:01:47.709Z,17.00
2022-09-12T02:05:01.683Z,17.45
2022-09-12T02:08:12.163Z,17.60
2022-09-12T02:11:14.674Z,19.87
2022-09-12T02:14:24.454Z,17.52
2022-09-12T02:17:27.201Z,18.30
2022-09-12T02:20:47.464Z,16.40
2022-09-12T02:23:56.987Z,16.48
2022-09-12T02:27:10.354Z,16.40
2022-09-12T02:30:16.646Z,14.40
2022-09-12T02:33:27.731Z,15.70
2022-09-12T02:36:43.632Z,14.80
2022-09-12T02:39:46.783Z,15.55
2022-09-12T02:42:49.739Z,14.07
2022-09-12T02:45:52.391Z,16.30
2022-09-12T02:48:56.829Z,14.03
2022-09-12T02:52:00.169Z,14.40
2022-09-12T02:55:05.060Z,13.60
2022-09-12T02:58:12.293Z,13.73
2022-09-12T03:01:23.902Z,12.15
2022-09-12T03:04:47.948Z,14.87
2022-09-12T03:07:57.435Z,13.75
2022-09-12T03:11:14.695Z,14.55
2022-09-12T03:14:29.867Z,14.43
2022-09-12T03:17:56.575Z,13.82
2022-09-12T03:21:37.571Z,13.80
2022-09-12T03:25:03.307Z,12.77
2022-09-12T03:28:09.506Z,14.45
2022-09-12T03:31:16.812Z,13.25
2022-09-12T03:34:20.267Z,17.10
2022-09-12T03:37:22.713Z,13.27
2022-09-12T03:40:25.147Z,13.32
2022-09-12T03:43:27.607Z,16.65
2022-09-12T03:46:30.093Z,14.15
2022-09-12T03:49:32.568Z,13.70
2022-09-12T03:52:35.172Z,12.90
2022-09-12T03:55:39.077Z,12.52
2022-09-12T03:58:41.634Z,12.90
2022-09-12T04:01:44.094Z,12.60
2022-09-12T04:04:48.803Z,16.37
2022-09-12T04:07:51.974Z,12.40
2022-09-12T04:10:54.412Z,14.87
2022-09-12T04:13:56.899Z,15.43
2022-09-12T04:16:59.377Z,12.63
2022-09-12T04:20:02.106Z,13.48
2022-09-12T04:23:04.557Z,15.50
2022-09-12T04:26:07.655Z,14.80
2022-09-12T04:29:11.970Z,14.50
2022-09-12T04:32:15.276Z,15.52
2022-09-12T04:35:17.768Z,17.30
2022-09-12T04:38:20.426Z,12.93
2022-09-12T04:41:25.234Z,14.02
2022-09-12T04:44:27.700Z,13.18
2022-09-12T04:47:30.127Z,16.70
2022-09-12T04:50:32.512Z,14.23
2022-09-12T04:53:35.737Z,13.17
2022-09-12T04:56:40.677Z,13.05
2022-09-12T04:59:43.183Z,14.15
2022-09-12T05:02:45.663Z,15.55
2022-09-12T05:05:48.181Z,15.65
2022-09-12T05:08:52.215Z,15.33
2022-09-12T05:12:09.938Z,14.18
2022-09-12T05:15:12.539Z,15.70
2022-09-12T05:18:15.031Z,12.90
2022-09-12T05:21:20.701Z,13.82
2022-09-12T05:24:23.192Z,15.53
2022-09-12T05:27:25.646Z,13.18
2022-09-12T05:30:28.076Z,13.02
2022-09-12T05:33:31.443Z,14.63
2022-09-12T05:36:34.102Z,15.10
2022-09-12T05:39:36.611Z,12.93
2022-09-12T05:42:39.216Z,15.75
2022-09-12T05:45:42.307Z,15.65
2022-09-12T05:48:46.432Z,12.68
2022-09-12T05:51:49.069Z,12.50
2022-09-12T05:54:51.666Z,13.10
2022-09-12T05:57:54.318Z,12.00
2022-09-12T06:01:01.351Z,14.13
2022-09-12T06:04:06.378Z,13.13
2022-09-12T06:07:09.136Z,14.07
2022-09-12T06:10:12.077Z,14.70
2022-09-12T06:13:14.462Z,12.88
2022-09-12T06:16:21.822Z,12.43
2022-09-12T06:19:25.630Z,12.90
2022-09-12T06:22:28.316Z,12.88
2022-09-12T06:25:30.754Z,13.23
2022-09-12T06:28:35.529Z,13.82
2022-09-12T06:31:39.267Z,11.05
2022-09-12T06:34:41.718Z,12.45
2022-09-12T06:37:44.973Z,13.15
2022-09-12T06:40:47.419Z,12.90
2022-09-12T06:43:50.386Z,12.25
2022-09-12T06:46:54.268Z,14.93
2022-09-12T06:49:56.669Z,11.77
2022-09-12T06:52:59.121Z,13.18
2022-09-12T06:56:03.974Z,11.80
2022-09-12T06:59:06.903Z,15.60
2022-09-12T07:02:10.282Z,12.15
2022-09-12T07:05:14.052Z,13.57
2022-09-12T07:08:16.453Z,12.63
2022-09-12T07:11:24.611Z,10.27
2022-09-12T07:14:27.007Z,10.57
2022-09-12T07:17:29.506Z,11.77
2022-09-12T07:20:35.925Z,10.82
2022-09-12T07:23:40.143Z,11.32
2022-09-12T07:26:42.775Z,10.97
2022-09-12T07:29:46.951Z,10.93
2022-09-12T07:32:54.063Z,10.65
2022-09-12T07:36:01.213Z,12.02
2022-09-12T07:39:03.713Z,11.57
2022-09-12T07:42:07.158Z,11.97
2022-09-12T07:45:10.418Z,11.52
2022-09-12T07:48:12.992Z,10.38
2022-09-12T07:51:15.520Z,10.35
2022-09-12T07:54:18.520Z,10.52
2022-09-12T07:57:21.399Z,13.37
2022-09-12T08:00:23.857Z,11.07
2022-09-12T08:03:26.531Z,12.25
2022-09-12T08:06:32.192Z,11.38
2022-09-12T08:09:35.076Z,9.20
2022-09-12T08:12:37.523Z,9.63
2022-09-12T08:15:39.991Z,10.05
2022-09-12T08:18:42.547Z,10.27
2022-09-12T08:21:45.100Z,11.05
2022-09-12T08:24:48.335Z,12.10
2022-09-12T08:27:51.093Z,10.70
2022-09-12T08:30:54.691Z,10.05
2022-09-12T08:33:58.314Z,10.27
2022-09-12T08:37:01.021Z,10.50
2022-09-12T08:40:06.904Z,11.10
2022-09-12T08:43:45.724Z,10.40
2022-09-12T08:47:12.840Z,10.23
2022-09-12T08:50:19.882Z,12.27
2022-09-12T08:53:23.551Z,9.23
2022-09-12T08:56:31.585Z,11.68
2022-09-12T08:59:38.489Z,10.37
2022-09-12T09:03:00.230Z,9.07
2022-09-12T09:06:51.079Z,14.45
2022-09-12T09:10:09.355Z,9.60
2022-09-12T09:13:37.920Z,9.57
2022-09-12T09:16:43.035Z,9.63
2022-09-12T09:19:59.958Z,10.02
2022-09-12T09:23:17.598Z,9.73
2022-09-12T09:26:27.457Z,10.25
2022-09-12T09:29:41.399Z,10.00
2022-09-12T09:32:46.207Z,8.50
2022-09-12T09:35:56.959Z,10.82
2022-09-12T09:39:13.550Z,10.18
2022-09-12T09:42:18.693Z,10.02
2022-09-12T09:45:24.504Z,10.50
2022-09-12T09:48:29.910Z,10.07
2022-09-12T09:51:37.268Z,9.25
2022-09-12T09:54:44.964Z,10.20
2022-09-12T09:57:47.830Z,10.35
2022-09-12T10:00:54.847Z,11.40
2022-09-12T10:03:59.491Z,10.67
2022-09-12T10:07:04.447Z,10.55
2022-09-12T10:10:07.803Z,8.68
2022-09-12T10:13:24.334Z,9.65
2022-09-12T10:16:35.608Z,10.05
2022-09-12T10:19:40.728Z,10.17
2022-09-12T10:22:48.293Z,8.85
2022-09-12T10:25:56.965Z,8.15
2022-09-12T10:29:04.757Z,8.82
2022-09-12T10:32:08.476Z,11.77
2022-09-12T10:35:23.752Z,9.83
2022-09-12T10:38:28.393Z,8.23
2022-09-12T10:41:38.338Z,11.18
2022-09-12T10:44:53.435Z,8.80
2022-09-12T10:48:05.525Z,8.93
2022-09-12T10:51:25.334Z,9.97
2022-09-12T10:54:28.816Z,9.63
2022-09-12T10:57:52.858Z,9.68
2022-09-12T11:01:02.438Z,8.52
2022-09-12T11:04:33.036Z,8.85
2022-09-12T11:07:35.599Z,9.47
2022-09-12T11:11:12.622Z,9.98
2022-09-12T11:14:25.330Z,9.32
2022-09-12T11:17:57.485Z,7.97
2022-09-12T11:21:17.704Z,8.45
2022-09-12T11:24:31.630Z,7.93
2022-09-12T11:27:46.083Z,8.35
2022-09-12T11:30:55.536Z,7.90
2022-09-12T11:33:59.522Z,10.10
2022-09-12T11:37:37.482Z,10.02
2022-09-12T11:40:57.052Z,8.30
2022-09-12T11:44:22.772Z,8.38
2022-09-12T11:47:25.612Z,7.22
2022-09-12T11:50:32.442Z,9.15
2022-09-12T11:53:39.128Z,8.52
2022-09-12T11:56:51.499Z,8.33
2022-09-12T11:59:58.810Z,7.43
2022-09-12T12:03:07.382Z,8.80
2022-09-12T12:06:22.060Z,7.90
2022-09-12T12:09:24.797Z,8.98
2022-09-12T12:12:29.169Z,7.40
2022-09-12T12:15:32.033Z,8.73
2022-09-12T12:18:37.915Z,7.80
2022-09-12T12:21:42.699Z,8.13
2022-09-12T12:24:55.215Z,9.55
2022-09-12T12:28:02.002Z,8.80
2022-09-12T12:31:05.599Z,7.55
2022-09-12T12:34:22.934Z,7.20
2022-09-12T13:03:02.985Z,7.93
2022-09-12T13:06:07.421Z,8.95
2022-09-12T13:09:51.912Z,8.10
2022-09-12T13:12:56.851Z,8.10
2022-09-12T13:15:59.510Z,8.15
2022-09-12T13:19:08.650Z,9.13
2022-09-12T13:22:11.219Z,8.50
2022-09-12T13:25:23.183Z,7.62
2022-09-12T13:28:27.223Z,7.65
2022-09-12T13:31:30.713Z,8.82
2022-09-12T13:35:12.365Z,8.40
2022-09-12T13:38:52.593Z,9.85
2022-09-12T13:42:32.340Z,9.05
2022-09-12T13:45:38.378Z,7.70
2022-09-12T13:48:41.344Z,9.43
2022-09-12T13:51:43.974Z,7.13
2022-09-12T13:54:50.492Z,8.15
2022-09-12T13:57:58.363Z,7.43
2022-09-12T14:01:10.027Z,7.62
2022-09-12T14:04:43.485Z,8.10
2022-09-12T14:07:55.342Z,7.17
2022-09-12T14:10:58.880Z,7.05
2022-09-12T14:14:05.353Z,7.68
2022-09-12T14:17:23.691Z,8.73
2022-09-12T14:20:33.292Z,9.15
2022-09-12T14:23:41.717Z,9.00
2022-09-12T14:26:45.080Z,8.50
2022-09-12T14:29:47.832Z,8.57
2022-09-12T14:33:12.466Z,7.95
2022-09-12T14:36:24.265Z,7.87
2022-09-12T14:39:32.939Z,7.43
2022-09-12T14:42:35.676Z,8.13
2022-09-12T14:45:40.142Z,7.10
2022-09-12T14:49:07.146Z,7.62
2022-09-12T14:52:22.241Z,7.97
2022-09-12T14:55:30.374Z,8.27
2022-09-12T14:58:33.578Z,7.60
2022-09-12T15:01:37.951Z,8.38
2022-09-12T15:04:52.676Z,7.30
2022-09-12T15:07:58.045Z,8.25
2022-09-12T15:11:06.692Z,8.30
2022-09-12T15:14:15.619Z,7.82
2022-09-12T15:17:18.339Z,7.62
2022-09-12T15:20:22.604Z,6.75
2022-09-12T15:23:47.177Z,7.82
2022-09-12T15:26:51.287Z,7.20
2022-09-12T15:29:54.084Z,7.07
2022-09-12T15:33:00.279Z,6.85
2022-09-12T15:36:13.583Z,6.80
2022-09-12T15:39:16.134Z,7.60
2022-09-12T15:42:28.412Z,9.00
2022-09-12T15:45:33.002Z,6.97
2022-09-12T15:48:36.062Z,7.87
2022-09-12T15:51:38.916Z,7.20
2022-09-12T15:54:41.720Z,6.97
2022-09-12T15:57:44.582Z,7.10
2022-09-12T16:00:47.180Z,6.75
2022-09-12T16:03:49.688Z,7.00
2022-09-12T16:06:54.731Z,7.80
2022-09-12T16:09:57.405Z,7.95
2022-09-12T16:13:00.198Z,7.77
2022-09-12T16:16:03.122Z,7.62
2022-09-12T16:19:05.724Z,7.65
2022-09-12T16:22:08.246Z,11.32
2022-09-12T16:25:10.893Z,8.10
2022-09-12T16:28:13.385Z,8.00
2022-09-12T16:31:16.102Z,19.30
2022-09-12T16:34:18.666Z,15.00
2022-09-12T16:37:21.438Z,11.90
2022-09-12T16:40:23.872Z,9.23
2022-09-12T16:43:26.417Z,7.30
2022-09-12T16:46:32.058Z,7.05
2022-09-12T16:49:34.830Z,7.97
2022-09-12T16:52:37.814Z,7.57
2022-09-12T16:55:40.409Z,30.95
2022-09-12T16:58:43.764Z,24.67
2022-09-12T17:01:46.428Z,10.30
2022-09-12T17:04:52.815Z,9.55
2022-09-12T17:07:55.467Z,16.55
2022-09-12T17:11:06.122Z,8.43
2022-09-12T17:14:10.922Z,13.53
2022-09-12T17:17:13.819Z,15.30
2022-09-12T17:20:16.401Z,8.52
2022-09-12T17:23:19.084Z,9.75
2022-09-12T17:26:22.315Z,9.18
2022-09-12T17:29:25.197Z,7.40
2022-09-12T17:32:27.792Z,9.55
2022-09-12T17:35:30.507Z,15.55
2022-09-12T17:38:34.937Z,12.98
2022-09-12T17:41:38.173Z,11.77
2022-09-12T17:44:41.829Z,8.53
2022-09-12T17:47:44.380Z,8.93
2022-09-12T17:50:48.116Z,10.15
2022-09-12T17:54:12.030Z,7.70
2022-09-12T17:57:14.936Z,8.73
2022-09-12T18:00:17.863Z,7.20
2022-09-12T18:03:24.472Z,9.18
2022-09-12T18:06:28.550Z,7.78
2022-09-12T18:09:31.135Z,8.55
2022-09-12T18:12:35.915Z,9.73
2022-09-12T18:15:38.622Z,8.60
2022-09-12T18:18:41.413Z,7.10
2022-09-12T18:21:44.158Z,9.00
2022-09-12T18:24:47.000Z,7.40
2022-09-12T18:27:50.031Z,8.18
2022-09-12T18:30:54.658Z,7.97
2022-09-12T18:33:59.962Z,27.95
2022-09-12T18:37:07.208Z,10.18
2022-09-12T18:40:10.477Z,13.60
2022-09-12T18:43:14.455Z,8.80
2022-09-12T18:46:18.936Z,8.07
2022-09-12T18:49:21.857Z,17.73
2022-09-12T18:52:26.074Z,8.75
2022-09-12T18:55:33.167Z,6.82
2022-09-12T18:58:36.677Z,10.00
2022-09-12T19:01:39.291Z,7.70
2022-09-12T19:04:41.996Z,7.05
2022-09-12T19:07:44.798Z,7.10
2022-09-12T19:10:56.655Z,9.02
2022-09-12T19:13:59.860Z,7.82
2022-09-12T19:17:02.837Z,9.13
2022-09-12T19:20:06.284Z,7.25
2022-09-12T19:23:08.841Z,7.18
2022-09-12T19:26:13.770Z,7.85
2022-09-12T19:29:16.829Z,8.48
2022-09-12T19:32:19.443Z,7.10
2022-09-12T19:35:21.982Z,8.40
2022-09-12T19:38:24.515Z,7.75
2022-09-12T19:41:27.895Z,6.53
2022-09-12T19:44:30.621Z,10.88
2022-09-12T19:47:34.576Z,8.13
2022-09-12T19:50:37.290Z,9.55
2022-09-12T19:53:40.996Z,9.02
2022-09-12T19:56:43.619Z,7.95
2022-09-12T19:59:46.407Z,8.95
2022-09-12T20:02:52.922Z,8.17
2022-09-12T20:06:02.281Z,10.82
2022-09-12T20:09:04.921Z,10.02
2022-09-12T20:12:08.023Z,10.45
2022-09-12T20:15:14.243Z,8.43
2022-09-12T20:18:16.791Z,10.53
2022-09-12T20:21:22.068Z,9.48
2022-09-12T20:24:24.595Z,7.95
2022-09-12T20:27:27.143Z,12.32
2022-09-12T20:30:31.007Z,11.93
2022-09-12T20:33:34.347Z,8.70
2022-09-12T20:36:36.831Z,9.05
2022-09-12T20:39:39.339Z,10.23
2022-09-12T20:42:42.470Z,7.30
2022-09-12T20:45:44.943Z,8.05
2022-09-12T20:48:47.488Z,7.90
2022-09-12T20:51:50.447Z,7.80
2022-09-12T20:54:52.992Z,9.27
2022-09-12T20:57:55.472Z,8.15
2022-09-12T21:00:57.892Z,8.38
2022-09-12T21:04:01.359Z,7.70
2022-09-12T21:07:03.769Z,9.88
2022-09-12T21:10:06.525Z,10.75
2022-09-12T21:13:10.409Z,9.05
2022-09-12T21:16:18.013Z,7.03
2022-09-12T21:19:20.582Z,7.93
2022-09-12T21:22:23.253Z,9.07
2022-09-12T21:25:25.804Z,7.32
2022-09-12T21:28:28.742Z,8.50
2022-09-12T21:31:31.268Z,7.28
2022-09-12T21:34:34.106Z,8.07
2022-09-12T21:37:36.561Z,7.97
2022-09-12T21:40:39.015Z,8.60
2022-09-12T21:43:42.067Z,8.35
2022-09-12T21:46:44.921Z,7.22
2022-09-12T21:49:47.333Z,7.70
2022-09-12T21:52:49.841Z,7.68
2022-09-12T21:56:00.955Z,7.90
2022-09-12T21:59:03.766Z,7.93
2022-09-12T22:02:08.724Z,7.10
2022-09-12T22:05:14.422Z,7.43
2022-09-12T22:08:18.024Z,7.87
2022-09-12T22:11:23.836Z,6.93
2022-09-12T22:14:26.497Z,7.50
2022-09-12T22:17:29.185Z,7.20
2022-09-12T22:20:32.226Z,7.17
2022-09-12T22:23:53.631Z,10.38
2022-09-12T22:26:57.299Z,9.18
2022-09-12T22:29:59.782Z,7.85
2022-09-12T22:33:02.359Z,8.90
2022-09-12T22:36:05.327Z,8.03
2022-09-12T22:39:08.641Z,7.78
2022-09-12T22:42:11.288Z,7.82
2022-09-12T22:45:13.947Z,8.50
2022-09-12T22:48:17.257Z,7.75
2022-09-12T22:51:19.968Z,7.33
2022-09-12T22:54:22.738Z,7.25
2022-09-12T22:57:25.647Z,6.78
2022-09-12T23:00:28.125Z,7.55
2022-09-12T23:03:30.696Z,7.53
2022-09-12T23:06:33.829Z,7.33
2022-09-12T23:09:36.474Z,8.55
2022-09-12T23:12:38.863Z,7.40
2022-09-12T23:15:41.606Z,7.20
2022-09-12T23:18:44.298Z,6.97
2022-09-12T23:21:46.738Z,7.40
2022-09-12T23:24:49.234Z,6.87
2022-09-12T23:27:52.091Z,8.95
2022-09-12T23:30:56.105Z,7.22
2022-09-12T23:34:02.076Z,8.45
2022-09-12T23:37:07.530Z,7.57
2022-09-12T23:40:10.629Z,9.68
2022-09-12T23:43:13.070Z,7.75
2022-09-12T23:46:16.664Z,8.20
2022-09-12T23:49:20.206Z,10.80
2022-09-12T23:52:22.663Z,8.67
2022-09-12T23:55:25.148Z,7.25
2022-09-12T23:58:28.012Z,7.55
